Capt. Henry Jackman — VCTV — position and weather

sailwx.info

Track history (hours):
 
Tides and Currents Weather Stations Pressure Air Temp Water Temp Dewpoint Dewpoint Depression Visibility Wind Speed Wind Dir Waves Ship Positions

Capt. Henry Jackman

Last reported at 2017-Nov-24 03:00 UTC. Time now 2017-Nov-24 20:43 UTC.
Position N 44°24' W 082°36'.

Length 223 m; draft 5.1 m.

Type: Cargo ship. MMSI: 316001803.

Wind from 240 at 20 knots

Barometer 1010.0 mb
Air temperature 5.0 ° C
Visibility: greater than 10.8 NM
Dewpoint -1.0 ° C

Date/timePositionNaut miles runAvg speedWind from/ knotsBaromVisibWave heightAir tempDewpointWater temp
2017-Nov-24 03:00N 44°24' W 082°36'7110.0 240 / 201010.010.8 5.0-1.0
2017-Nov-23 19:55N 45°27' W 083°24'611.7
2017-Nov-23 19:23N 45°29' W 083°31'511.7
2017-Nov-23 19:00N 45°31' W 083°37'611.6
2017-Nov-23 18:31N 45°33' W 083°45'2411.4
2017-Nov-23 16:25N 45°43' W 084°16'910.6
2017-Nov-23 15:35N 45°42' W 084°29'111.5
2017-Nov-23 15:29N 45°43' W 084°30'811.6
2017-Nov-23 14:50N 45°47' W 084°39'411.4
2017-Nov-23 14:31N 45°49' W 084°44'611.8
2017-Nov-23 14:01N 45°50' W 084°52'611.5
2017-Nov-23 13:30N 45°52' W 084°60'510.6
2017-Nov-23 13:01N 45°55' W 085°06'611.0
2017-Nov-23 12:30N 45°60' W 085°09'2 3.4
2017-Nov-23 12:00N 46°01' W 085°08'1 2.9
2017-Nov-23 11:30N 46°02' W 085°06'0 0.0
2017-Nov-23 11:01N 46°02' W 085°06'0 0.1
2017-Nov-23 10:27N 46°02' W 085°06'0 0.0
2017-Nov-23 10:00N 46°02' W 085°06'0 0.1
2017-Nov-23 09:31N 46°02' W 085°06'0 0.0
2017-Nov-23 08:59N 46°02' W 085°06'0 0.0
2017-Nov-23 08:31N 46°02' W 085°06'0 0.0
2017-Nov-23 07:59N 46°02' W 085°06'0 0.0
2017-Nov-23 07:28N 46°02' W 085°06'0 0.0
2017-Nov-23 07:00N 46°02' W 085°06'0 0.1
2017-Nov-23 06:30N 46°02' W 085°06'0 0.0
2017-Nov-23 06:00N 46°02' W 085°06'0 0.0
2017-Nov-23 05:30N 46°02' W 085°06'0 0.0
2017-Nov-23 05:01N 46°02' W 085°06'0 0.0
2017-Nov-23 04:31N 46°02' W 085°06'0 0.1
2017-Nov-23 03:59N 46°02' W 085°06'0 0.0
2017-Nov-23 03:31N 46°02' W 085°06'0 0.1
2017-Nov-23 03:01N 46°02' W 085°06'0 0.0
2017-Nov-23 02:31N 46°02' W 085°06'0 0.0
2017-Nov-23 02:01N 46°02' W 085°06'0 0.0
2017-Nov-23 01:30N 46°02' W 085°06'0 0.0
2017-Nov-23 01:01N 46°02' W 085°06'0 0.0
2017-Nov-23 00:28N 46°02' W 085°06'0 0.0
2017-Nov-22 23:57N 46°02' W 085°06'0 0.1
2017-Nov-22 23:29N 46°02' W 085°06'0 0.2
2017-Nov-22 23:00N 46°02' W 085°06'1 2.2
2017-Nov-22 22:31N 46°02' W 085°08'1 1.8
2017-Nov-22 22:00N 46°01' W 085°09'1 2.3
2017-Nov-22 21:31N 46°02' W 085°07'1 1.6
2017-Nov-22 21:01N 46°02' W 085°06'0 0.0
2017-Nov-22 20:31N 46°02' W 085°06'0 0.0
2017-Nov-22 20:01N 46°02' W 085°06'0 0.0
2017-Nov-22 19:30N 46°02' W 085°06'116 6.6
2017-Nov-22 02:00N 44°42' W 083°06'10210.2 310 / 311010.010.8 2.0-6.0
2017-Nov-21 16:00N 43°06' W 082°18'7 0.5 280 / 321004.010.8 9.0-1.0
2017-Nov-21 02:00N 43°12' W 082°12'   280 / 411007.010.8 8.0-0.0
2017-Nov-18 03:00N 42°12' W 081°06'   170 / 211010.010.8 9.0 1.0
Track history (hours):
 
Tides and Currents Weather Stations Pressure Air Temp Water Temp Dewpoint Dewpoint Depression Visibility Wind Speed Wind Dir Waves Ship Positions

Capt. Henry Jackman

Last reported at 2017-Nov-24 03:00 UTC. Time now 2017-Nov-24 20:43 UTC.
Position N 44°24' W 082°36'.

Length 223 m; draft 5.1 m.

Type: Cargo ship. MMSI: 316001803.

Wind from 240 at 20 knots

Barometer 1010.0 mb
Air temperature 5.0 ° C
Visibility: greater than 10.8 NM
Dewpoint -1.0 ° C

Date/timePositionNaut miles runAvg speedWind from/ knotsBaromVisibWave heightAir tempDewpointWater temp
2017-Nov-24 03:00N 44°24' W 082°36'7110.0 240 / 201010.010.8 5.0-1.0
2017-Nov-23 19:55N 45°27' W 083°24'611.7
2017-Nov-23 19:23N 45°29' W 083°31'511.7
2017-Nov-23 19:00N 45°31' W 083°37'611.6
2017-Nov-23 18:31N 45°33' W 083°45'2411.4
2017-Nov-23 16:25N 45°43' W 084°16'910.6
2017-Nov-23 15:35N 45°42' W 084°29'111.5
2017-Nov-23 15:29N 45°43' W 084°30'811.6
2017-Nov-23 14:50N 45°47' W 084°39'411.4
2017-Nov-23 14:31N 45°49' W 084°44'611.8
2017-Nov-23 14:01N 45°50' W 084°52'611.5
2017-Nov-23 13:30N 45°52' W 084°60'510.6
2017-Nov-23 13:01N 45°55' W 085°06'611.0
2017-Nov-23 12:30N 45°60' W 085°09'2 3.4
2017-Nov-23 12:00N 46°01' W 085°08'1 2.9
2017-Nov-23 11:30N 46°02' W 085°06'0 0.0
2017-Nov-23 11:01N 46°02' W 085°06'0 0.1
2017-Nov-23 10:27N 46°02' W 085°06'0 0.0
2017-Nov-23 10:00N 46°02' W 085°06'0 0.1
2017-Nov-23 09:31N 46°02' W 085°06'0 0.0
2017-Nov-23 08:59N 46°02' W 085°06'0 0.0
2017-Nov-23 08:31N 46°02' W 085°06'0 0.0
2017-Nov-23 07:59N 46°02' W 085°06'0 0.0
2017-Nov-23 07:28N 46°02' W 085°06'0 0.0
2017-Nov-23 07:00N 46°02' W 085°06'0 0.1
2017-Nov-23 06:30N 46°02' W 085°06'0 0.0
2017-Nov-23 06:00N 46°02' W 085°06'0 0.0
2017-Nov-23 05:30N 46°02' W 085°06'0 0.0
2017-Nov-23 05:01N 46°02' W 085°06'0 0.0
2017-Nov-23 04:31N 46°02' W 085°06'0 0.1
2017-Nov-23 03:59N 46°02' W 085°06'0 0.0
2017-Nov-23 03:31N 46°02' W 085°06'0 0.1
2017-Nov-23 03:01N 46°02' W 085°06'0 0.0
2017-Nov-23 02:31N 46°02' W 085°06'0 0.0
2017-Nov-23 02:01N 46°02' W 085°06'0 0.0
2017-Nov-23 01:30N 46°02' W 085°06'0 0.0
2017-Nov-23 01:01N 46°02' W 085°06'0 0.0
2017-Nov-23 00:28N 46°02' W 085°06'0 0.0
2017-Nov-22 23:57N 46°02' W 085°06'0 0.1
2017-Nov-22 23:29N 46°02' W 085°06'0 0.2
2017-Nov-22 23:00N 46°02' W 085°06'1 2.2
2017-Nov-22 22:31N 46°02' W 085°08'1 1.8
2017-Nov-22 22:00N 46°01' W 085°09'1 2.3
2017-Nov-22 21:31N 46°02' W 085°07'1 1.6
2017-Nov-22 21:01N 46°02' W 085°06'0 0.0
2017-Nov-22 20:31N 46°02' W 085°06'0 0.0
2017-Nov-22 20:01N 46°02' W 085°06'0 0.0
2017-Nov-22 19:30N 46°02' W 085°06'116 6.6
2017-Nov-22 02:00N 44°42' W 083°06'10210.2 310 / 311010.010.8 2.0-6.0
2017-Nov-21 16:00N 43°06' W 082°18'7 0.5 280 / 321004.010.8 9.0-1.0
2017-Nov-21 02:00N 43°12' W 082°12'   280 / 411007.010.8 8.0-0.0
2017-Nov-18 03:00N 42°12' W 081°06'   170 / 211010.010.8 9.0 1.0

Dump ship's entire track history